createdAt,value
2019-03-23T00:02:22.737Z,99.90
2019-03-23T00:04:54.322Z,99.90
2019-03-23T00:07:25.937Z,99.90
2019-03-23T00:09:58.728Z,99.90
2019-03-23T00:12:30.788Z,99.90
2019-03-23T00:15:02.399Z,99.90
2019-03-23T00:17:34.131Z,99.90
2019-03-23T00:20:07.640Z,99.90
2019-03-23T00:22:39.901Z,99.90
2019-03-23T00:25:11.917Z,99.90
2019-03-23T00:27:43.557Z,99.90
2019-03-23T00:30:15.550Z,99.90
2019-03-23T00:32:47.297Z,99.90
2019-03-23T00:35:19.235Z,99.90
2019-03-23T00:37:50.856Z,99.90
2019-03-23T00:40:22.462Z,99.90
2019-03-23T00:42:54.059Z,99.90
2019-03-23T00:45:25.736Z,99.90
2019-03-23T00:47:57.339Z,99.90
2019-03-23T00:50:29.022Z,99.90
2019-03-23T00:53:00.659Z,99.90
2019-03-23T00:55:32.322Z,99.90
2019-03-23T00:58:03.913Z,99.90
2019-03-23T01:00:35.587Z,99.90
2019-03-23T01:03:07.287Z,99.90
2019-03-23T01:05:39.964Z,99.90
2019-03-23T01:08:11.592Z,99.90
2019-03-23T01:10:43.234Z,99.90
2019-03-23T01:13:14.946Z,99.90
2019-03-23T01:15:48.140Z,99.90
2019-03-23T01:18:19.951Z,99.90
2019-03-23T01:20:51.649Z,99.90
2019-03-23T01:23:23.907Z,99.90
2019-03-23T01:25:55.523Z,99.90
2019-03-23T01:28:27.192Z,99.90
2019-03-23T01:30:58.932Z,99.90
2019-03-23T01:33:30.611Z,99.90
2019-03-23T01:36:02.473Z,99.90
2019-03-23T01:38:34.108Z,99.90
2019-03-23T01:41:05.855Z,99.90
2019-03-23T01:43:38.764Z,99.90
2019-03-23T01:46:10.375Z,99.90
2019-03-23T01:48:42.035Z,99.90
2019-03-23T01:51:13.749Z,99.90
2019-03-23T01:53:45.380Z,99.90
2019-03-23T01:56:17.038Z,99.90
2019-03-23T01:58:48.672Z,99.90
2019-03-23T02:01:20.284Z,99.90
2019-03-23T02:03:52.335Z,99.90
2019-03-23T02:06:24.097Z,99.90
2019-03-23T02:08:55.770Z,99.90
2019-03-23T02:11:27.351Z,99.90
2019-03-23T02:13:58.980Z,99.90
2019-03-23T02:16:30.670Z,99.90
2019-03-23T02:19:02.395Z,99.90
2019-03-23T02:21:34.047Z,99.90
2019-03-23T02:24:05.659Z,99.90
2019-03-23T02:26:37.263Z,99.90
2019-03-23T02:29:08.931Z,99.90
2019-03-23T02:31:40.617Z,99.90
2019-03-23T02:34:12.271Z,99.90
2019-03-23T02:36:44.386Z,99.90
2019-03-23T02:39:16.115Z,99.90
2019-03-23T02:41:47.791Z,99.90
2019-03-23T02:44:19.506Z,99.90
2019-03-23T02:46:51.118Z,99.90
2019-03-23T02:49:22.817Z,99.90
2019-03-23T02:51:54.536Z,99.90
2019-03-23T02:54:26.123Z,99.90
2019-03-23T02:56:57.821Z,99.90
2019-03-23T02:59:31.244Z,99.90
2019-03-23T03:02:03.328Z,99.90
2019-03-23T03:04:35.093Z,99.90
2019-03-23T03:07:06.874Z,99.90
2019-03-23T03:09:38.521Z,99.90
2019-03-23T03:12:10.142Z,99.90
2019-03-23T03:14:41.841Z,99.90
2019-03-23T03:17:13.494Z,99.90
2019-03-23T03:19:45.090Z,99.90
2019-03-23T03:22:16.789Z,99.90
2019-03-23T03:24:48.476Z,99.90
2019-03-23T03:27:20.175Z,99.90
2019-03-23T03:29:52.239Z,99.90
2019-03-23T03:32:23.860Z,99.90
2019-03-23T03:34:55.456Z,99.90
2019-03-23T03:37:28.856Z,99.90
2019-03-23T03:40:00.548Z,99.90
2019-03-23T03:42:32.238Z,99.90
2019-03-23T03:45:04.059Z,99.90
2019-03-23T03:47:35.988Z,99.90
2019-03-23T03:50:08.048Z,99.90
2019-03-23T03:52:39.824Z,99.90
2019-03-23T03:55:11.801Z,99.90
2019-03-23T03:57:43.430Z,99.90
2019-03-23T04:00:15.226Z,99.90
2019-03-23T04:02:57.699Z,99.90
2019-03-23T04:05:29.327Z,99.90
2019-03-23T04:08:10.861Z,99.90
2019-03-23T04:10:34.405Z,99.90
2019-03-23T04:13:06.076Z,99.90
2019-03-23T04:15:37.713Z,99.90
2019-03-23T04:18:09.348Z,99.90
2019-03-23T04:20:40.972Z,99.90
2019-03-23T04:23:12.623Z,99.90
2019-03-23T04:25:44.334Z,99.90
2019-03-23T04:28:15.945Z,99.90
2019-03-23T04:30:47.625Z,99.90
2019-03-23T04:33:19.238Z,99.90
2019-03-23T04:35:51.032Z,99.90
2019-03-23T04:38:23.414Z,99.90
2019-03-23T04:40:55.338Z,99.90
2019-03-23T04:43:27.614Z,99.90
2019-03-23T04:45:59.297Z,99.90
2019-03-23T04:48:30.918Z,99.90
2019-03-23T04:51:02.570Z,99.90
2019-03-23T04:53:34.230Z,99.90
2019-03-23T04:56:05.820Z,99.90
2019-03-23T04:58:37.449Z,99.90
2019-03-23T05:01:09.065Z,99.90
2019-03-23T05:03:41.050Z,99.90
2019-03-23T05:06:12.905Z,99.90
2019-03-23T05:08:49.807Z,99.90
2019-03-23T05:11:21.436Z,99.90
2019-03-23T05:13:53.087Z,99.90
2019-03-23T05:16:24.702Z,99.90
2019-03-23T05:18:56.347Z,99.90
2019-03-23T05:21:28.211Z,99.90
2019-03-23T05:23:59.957Z,99.90
2019-03-23T05:26:31.560Z,99.90
2019-03-23T05:29:03.317Z,99.90
2019-03-23T05:31:35.049Z,99.90
2019-03-23T05:34:06.766Z,99.90
2019-03-23T05:36:38.491Z,99.90
2019-03-23T05:39:10.604Z,99.90
2019-03-23T05:41:42.228Z,99.90
2019-03-23T05:44:14.019Z,99.90
2019-03-23T05:46:45.606Z,99.90
2019-03-23T05:49:17.238Z,99.90
2019-03-23T05:51:48.853Z,99.90
2019-03-23T05:54:20.568Z,99.90
2019-03-23T05:56:52.264Z,99.90
2019-03-23T05:59:23.972Z,99.90
2019-03-23T06:01:55.624Z,99.90
2019-03-23T06:04:34.602Z,99.90
2019-03-23T06:07:06.225Z,99.90
2019-03-23T06:09:37.893Z,99.90
2019-03-23T06:12:09.547Z,99.90
2019-03-23T06:14:41.741Z,99.90
2019-03-23T06:17:16.836Z,99.90
2019-03-23T06:19:48.541Z,99.90
2019-03-23T06:22:20.163Z,99.90
2019-03-23T06:24:51.779Z,99.90
2019-03-23T06:27:23.446Z,99.90
2019-03-23T06:29:55.127Z,99.90
2019-03-23T06:32:27.010Z,99.90
2019-03-23T06:34:58.898Z,99.90
2019-03-23T06:37:30.569Z,99.90
2019-03-23T06:40:02.316Z,99.90
2019-03-23T06:42:33.988Z,99.90
2019-03-23T06:45:06.767Z,99.90
2019-03-23T06:47:38.468Z,99.90
2019-03-23T06:50:11.368Z,99.90
2019-03-23T06:52:43.006Z,99.90
2019-03-23T06:55:14.647Z,99.90
2019-03-23T06:57:46.269Z,99.90
2019-03-23T07:00:17.929Z,99.90
2019-03-23T07:02:49.527Z,99.90
2019-03-23T07:05:21.271Z,99.90
2019-03-23T07:07:53.189Z,99.90
2019-03-23T07:10:24.973Z,99.90
2019-03-23T07:12:56.576Z,99.90
2019-03-23T07:15:28.190Z,99.90
2019-03-23T07:17:59.781Z,99.90
2019-03-23T07:20:33.015Z,99.90
2019-03-23T07:23:04.630Z,99.90
2019-03-23T07:25:36.431Z,99.90
2019-03-23T07:28:08.103Z,99.90
2019-03-23T07:30:59.765Z,99.90
2019-03-23T07:33:31.365Z,99.90
2019-03-23T07:36:03.098Z,99.90
2019-03-23T07:38:35.218Z,99.90
2019-03-23T07:41:07.044Z,99.90
2019-03-23T07:43:38.834Z,99.90
2019-03-23T07:46:10.627Z,99.90
2019-03-23T07:48:42.531Z,99.90
2019-03-23T07:51:14.192Z,99.90
2019-03-23T07:53:45.989Z,99.90
2019-03-23T07:56:17.812Z,99.90
2019-03-23T07:58:49.426Z,99.90
2019-03-23T08:01:21.027Z,99.90
2019-03-23T08:03:52.672Z,99.90
2019-03-23T08:06:24.631Z,99.90
2019-03-23T08:08:56.311Z,99.90
2019-03-23T08:11:28.085Z,99.90
2019-03-23T08:13:59.728Z,99.90
2019-03-23T08:16:31.678Z,99.90
2019-03-23T08:19:03.487Z,99.90
2019-03-23T08:21:35.172Z,99.90
2019-03-23T08:24:07.131Z,99.90
2019-03-23T08:26:38.923Z,99.90
2019-03-23T08:29:10.809Z,99.90
2019-03-23T08:31:42.969Z,99.90
2019-03-23T08:34:14.627Z,99.90
2019-03-23T08:36:46.642Z,99.90
2019-03-23T08:39:18.362Z,99.90
2019-03-23T08:41:50.155Z,99.90
2019-03-23T08:44:21.819Z,99.90
2019-03-23T08:46:53.516Z,99.90
2019-03-23T08:49:25.542Z,99.90
2019-03-23T08:51:57.707Z,99.90
2019-03-23T08:54:30.803Z,99.90
2019-03-23T08:57:02.480Z,99.90
2019-03-23T08:59:34.375Z,99.90
2019-03-23T09:02:06.148Z,99.90
2019-03-23T09:04:38.581Z,99.90
2019-03-23T09:07:11.502Z,99.90
2019-03-23T09:09:43.114Z,99.90
2019-03-23T09:12:14.823Z,99.90
2019-03-23T09:14:46.546Z,99.90
2019-03-23T09:17:18.203Z,99.90
2019-03-23T09:19:50.267Z,99.90
2019-03-23T09:22:40.670Z,99.90
2019-03-23T09:25:12.307Z,99.90
2019-03-23T09:27:44.437Z,99.90
2019-03-23T09:30:16.332Z,99.90
2019-03-23T09:32:48.059Z,99.90
2019-03-23T09:35:19.676Z,99.90
2019-03-23T09:37:51.394Z,99.90
2019-03-23T09:40:23.117Z,99.90
2019-03-23T09:42:54.989Z,99.90
2019-03-23T09:45:26.815Z,99.90
2019-03-23T09:47:58.531Z,99.90
2019-03-23T09:50:30.586Z,99.90
2019-03-23T09:53:02.217Z,99.90
2019-03-23T09:55:34.111Z,99.90
2019-03-23T09:58:05.749Z,99.90
2019-03-23T10:00:38.579Z,99.90
2019-03-23T10:03:10.271Z,99.90
2019-03-23T10:05:41.918Z,99.90
2019-03-23T10:08:13.672Z,99.90
2019-03-23T10:10:45.747Z,99.90
2019-03-23T10:13:17.399Z,99.90
2019-03-23T10:15:49.064Z,99.90
2019-03-23T10:18:21.059Z,99.90
2019-03-23T10:20:52.842Z,99.90
2019-03-23T10:23:24.869Z,99.90
2019-03-23T10:25:56.628Z,99.90
2019-03-23T10:28:28.246Z,99.90
2019-03-23T10:31:00.279Z,99.90
2019-03-23T10:33:33.389Z,99.90
2019-03-23T10:36:05.287Z,99.40
2019-03-23T10:38:37.046Z,99.60
2019-03-23T10:41:08.696Z,98.90
2019-03-23T10:43:40.579Z,97.40
2019-03-23T10:46:12.279Z,96.60
2019-03-23T10:48:43.982Z,96.80
2019-03-23T10:51:15.937Z,95.00
2019-03-23T10:53:47.695Z,94.60
2019-03-23T10:56:19.351Z,95.90
2019-03-23T10:58:51.599Z,95.80
2019-03-23T11:01:42.020Z,95.10
2019-03-23T11:04:13.931Z,94.80
2019-03-23T11:06:45.701Z,94.60
2019-03-23T11:09:17.755Z,93.30
2019-03-23T11:11:49.643Z,93.30
2019-03-23T11:14:21.283Z,91.70
2019-03-23T11:16:52.971Z,92.10
2019-03-23T11:19:25.051Z,92.70
2019-03-23T11:21:56.735Z,92.00
2019-03-23T11:24:28.581Z,90.50
2019-03-23T11:27:00.636Z,90.00
2019-03-23T11:29:32.283Z,85.70
2019-03-23T11:32:04.197Z,87.20
2019-03-23T11:34:35.890Z,83.60
2019-03-23T11:37:07.568Z,88.10
2019-03-23T11:39:40.933Z,85.50
2019-03-23T11:42:12.567Z,85.60
2019-03-23T11:44:45.473Z,83.50
2019-03-23T11:47:17.234Z,83.90
2019-03-23T11:49:48.940Z,80.80
2019-03-23T11:52:20.736Z,77.90
2019-03-23T11:54:52.695Z,79.20
2019-03-23T11:57:24.372Z,74.80
2019-03-23T11:59:56.273Z,73.00
2019-03-23T12:02:29.004Z,73.40
2019-03-23T12:05:01.706Z,75.30
2019-03-23T12:07:34.444Z,73.80
2019-03-23T12:10:07.445Z,69.30
2019-03-23T12:12:39.416Z,70.80
2019-03-23T12:15:12.314Z,69.00
2019-03-23T12:17:44.029Z,66.30
2019-03-23T12:20:15.658Z,68.90
2019-03-23T12:22:47.342Z,66.30
2019-03-23T12:25:18.955Z,63.30
2019-03-23T12:27:50.873Z,63.50
2019-03-23T12:30:22.636Z,62.70
2019-03-23T12:32:54.271Z,63.80
2019-03-23T12:35:37.645Z,64.20
2019-03-23T12:38:09.262Z,66.40
2019-03-23T12:40:41.191Z,66.40
2019-03-23T12:43:13.767Z,63.60
2019-03-23T12:45:46.297Z,65.30
2019-03-23T12:48:17.981Z,63.70
2019-03-23T12:50:49.981Z,61.90
2019-03-23T12:53:21.817Z,61.00
2019-03-23T12:55:53.477Z,60.70
2019-03-23T12:58:25.535Z,61.90
2019-03-23T13:00:57.163Z,60.00
2019-03-23T13:03:28.777Z,59.90
2019-03-23T13:06:00.405Z,60.40
2019-03-23T13:08:32.053Z,61.70
2019-03-23T13:11:03.714Z,60.10
2019-03-23T13:13:35.355Z,58.30
2019-03-23T13:16:07.189Z,59.00
2019-03-23T13:18:38.839Z,56.50
2019-03-23T13:21:10.518Z,59.60
2019-03-23T13:23:42.177Z,55.60
2019-03-23T13:26:13.838Z,54.00
2019-03-23T13:28:45.636Z,52.50
2019-03-23T13:31:17.367Z,51.90
2019-03-23T13:33:49.042Z,51.80
2019-03-23T13:36:20.722Z,51.10
2019-03-23T13:38:52.331Z,49.50
2019-03-23T13:41:23.971Z,49.20
2019-03-23T13:43:55.874Z,46.40
2019-03-23T13:46:27.799Z,46.20
2019-03-23T13:48:59.483Z,46.40
2019-03-23T13:51:31.457Z,44.20
2019-03-23T13:54:03.085Z,43.20
2019-03-23T13:56:34.885Z,42.20
2019-03-23T13:59:06.831Z,41.00
2019-03-23T14:01:38.417Z,43.40
2019-03-23T14:04:10.039Z,47.10
2019-03-23T14:06:43.084Z,43.80
2019-03-23T14:09:15.677Z,44.20
2019-03-23T14:11:54.649Z,44.50
2019-03-23T14:14:20.895Z,42.60
2019-03-23T14:16:52.725Z,42.90
2019-03-23T14:19:24.475Z,41.30
2019-03-23T14:21:57.367Z,41.50
2019-03-23T14:24:29.245Z,39.90
2019-03-23T14:27:00.989Z,41.00
2019-03-23T14:29:32.661Z,39.60
2019-03-23T14:32:04.257Z,40.90
2019-03-23T14:34:35.895Z,41.10
2019-03-23T14:37:07.529Z,39.70
2019-03-23T14:39:39.184Z,39.60
2019-03-23T14:42:10.781Z,39.00
2019-03-23T14:44:42.397Z,37.90
2019-03-23T14:47:14.732Z,39.20
2019-03-23T14:49:46.368Z,36.00
2019-03-23T14:52:18.307Z,35.20
2019-03-23T14:54:49.985Z,36.70
2019-03-23T14:57:21.613Z,37.70
2019-03-23T14:59:53.311Z,35.80
2019-03-23T15:02:24.899Z,36.00
2019-03-23T15:04:56.709Z,36.90
2019-03-23T15:07:29.445Z,35.90
2019-03-23T15:10:01.087Z,36.40
2019-03-23T15:12:32.681Z,35.30
2019-03-23T15:15:05.551Z,35.80
2019-03-23T15:17:37.409Z,34.90
2019-03-23T15:20:09.293Z,34.20
2019-03-23T15:22:40.984Z,33.70
2019-03-23T15:25:13.915Z,34.30
2019-03-23T15:27:45.669Z,34.10
2019-03-23T15:30:17.569Z,33.00
2019-03-23T15:32:49.372Z,32.80
2019-03-23T15:35:20.975Z,32.80
2019-03-23T15:37:53.641Z,34.10
2019-03-23T15:40:25.289Z,33.70
2019-03-23T15:42:56.939Z,32.40
2019-03-23T15:45:28.607Z,33.00
2019-03-23T15:48:00.439Z,34.40
2019-03-23T15:50:32.115Z,33.90
2019-03-23T15:53:03.864Z,32.80
2019-03-23T15:55:35.567Z,34.60
2019-03-23T15:58:07.142Z,34.80
2019-03-23T16:00:38.840Z,34.70
2019-03-23T16:03:10.939Z,34.30
2019-03-23T16:05:42.544Z,34.50
2019-03-23T16:08:14.355Z,33.00
2019-03-23T16:10:45.984Z,33.90
2019-03-23T16:13:17.572Z,34.50
2019-03-23T16:15:49.185Z,33.10
2019-03-23T16:18:21.279Z,32.70
2019-03-23T16:20:52.915Z,31.20
2019-03-23T16:23:24.568Z,31.70
2019-03-23T16:25:56.262Z,31.90
2019-03-23T16:28:46.683Z,32.10
2019-03-23T16:31:18.319Z,31.90
2019-03-23T16:33:51.012Z,31.30
2019-03-23T16:36:22.668Z,31.30
2019-03-23T16:38:54.321Z,30.90
2019-03-23T16:41:25.937Z,31.50
2019-03-23T16:43:58.102Z,31.20
2019-03-23T16:46:30.205Z,30.90
2019-03-23T16:49:02.109Z,31.10
2019-03-23T16:51:33.740Z,30.80
2019-03-23T16:54:05.583Z,32.60
2019-03-23T16:56:37.271Z,30.90
2019-03-23T16:59:08.871Z,30.60
2019-03-23T17:01:40.515Z,30.80
2019-03-23T17:04:12.502Z,30.80
2019-03-23T17:06:46.653Z,32.40
2019-03-23T17:09:18.078Z,31.50
2019-03-23T17:11:49.801Z,32.30
2019-03-23T17:14:21.419Z,32.20
2019-03-23T17:16:53.053Z,31.50
2019-03-23T17:19:25.205Z,31.60
2019-03-23T17:21:56.927Z,31.70
2019-03-23T17:24:28.573Z,32.60
2019-03-23T17:27:01.342Z,33.70
2019-03-23T17:29:33.514Z,33.70
2019-03-23T17:32:05.384Z,33.90
2019-03-23T17:34:38.174Z,36.00
2019-03-23T17:37:09.856Z,37.70
2019-03-23T17:39:41.447Z,35.10
2019-03-23T17:42:13.125Z,36.20
2019-03-23T17:44:46.214Z,36.90
2019-03-23T17:47:18.133Z,35.80
2019-03-23T17:49:50.270Z,36.00
2019-03-23T17:52:21.905Z,38.00
2019-03-23T17:54:53.697Z,39.00
2019-03-23T17:57:25.560Z,40.20
2019-03-23T17:59:57.281Z,37.40
2019-03-23T18:02:29.336Z,39.50
2019-03-23T18:05:02.235Z,38.80
2019-03-23T18:07:34.277Z,40.50
2019-03-23T18:10:07.119Z,41.60
2019-03-23T18:12:38.858Z,42.10
2019-03-23T18:15:11.878Z,42.00
2019-03-23T18:17:43.705Z,40.90
2019-03-23T18:20:15.969Z,42.90
2019-03-23T18:22:47.849Z,42.50
2019-03-23T18:25:19.547Z,43.20
2019-03-23T18:27:51.237Z,41.60
2019-03-23T18:30:41.911Z,41.60
2019-03-23T18:33:14.304Z,42.50
2019-03-23T18:35:46.265Z,41.90
2019-03-23T18:38:19.116Z,42.80
2019-03-23T18:40:50.748Z,43.20
2019-03-23T18:43:27.371Z,43.60
2019-03-23T18:45:56.082Z,43.10
2019-03-23T18:48:28.201Z,43.80
2019-03-23T18:51:00.243Z,44.70
2019-03-23T18:53:32.238Z,46.00
2019-03-23T18:56:03.805Z,46.10
2019-03-23T18:58:35.434Z,46.00
2019-03-23T19:01:08.340Z,47.40
2019-03-23T19:03:40.477Z,47.20
2019-03-23T19:06:12.492Z,47.50
2019-03-23T19:08:44.203Z,46.80
2019-03-23T19:11:15.815Z,49.40
2019-03-23T19:13:47.475Z,51.20
2019-03-23T19:16:19.071Z,49.30
2019-03-23T19:18:50.768Z,49.20
2019-03-23T19:21:22.414Z,51.40
2019-03-23T19:23:54.205Z,51.80
2019-03-23T19:26:25.837Z,50.90
2019-03-23T19:28:57.726Z,50.90
2019-03-23T19:31:29.498Z,49.70
2019-03-23T19:34:01.233Z,50.60
2019-03-23T19:36:32.903Z,50.70
2019-03-23T19:39:06.858Z,51.10
2019-03-23T19:41:38.531Z,51.30
2019-03-23T19:44:11.184Z,52.70
2019-03-23T19:46:42.827Z,52.40
2019-03-23T19:49:14.423Z,53.90
2019-03-23T19:51:46.363Z,56.10
2019-03-23T19:54:18.047Z,56.60
2019-03-23T19:56:49.943Z,58.20
2019-03-23T19:59:21.671Z,59.50
2019-03-23T20:01:53.425Z,58.10
2019-03-23T20:04:25.108Z,57.50
2019-03-23T20:06:56.915Z,58.00
2019-03-23T20:09:28.695Z,59.10
2019-03-23T20:12:00.391Z,59.80
2019-03-23T20:14:50.843Z,60.20
2019-03-23T20:17:22.478Z,58.90
2019-03-23T20:19:54.191Z,61.40
2019-03-23T20:22:25.977Z,63.00
2019-03-23T20:24:57.655Z,63.20
2019-03-23T20:27:29.331Z,66.20
2019-03-23T20:30:00.997Z,68.00
2019-03-23T20:32:32.683Z,69.50
2019-03-23T20:35:04.640Z,71.50
2019-03-23T20:37:36.334Z,72.60
2019-03-23T20:40:10.075Z,73.40
2019-03-23T20:42:43.774Z,75.30
2019-03-23T20:45:20.923Z,77.50
2019-03-23T20:47:52.669Z,76.60
2019-03-23T20:50:24.323Z,77.50
2019-03-23T20:52:56.427Z,74.90
2019-03-23T20:55:40.587Z,79.10
2019-03-23T20:58:12.255Z,79.40
2019-03-23T21:00:43.887Z,80.40
2019-03-23T21:03:15.538Z,80.60
2019-03-23T21:05:47.179Z,85.10
2019-03-23T21:08:18.871Z,88.90
2019-03-23T21:10:50.541Z,88.70
2019-03-23T21:13:22.315Z,87.20
2019-03-23T21:15:53.908Z,85.80
2019-03-23T21:18:25.587Z,85.20
2019-03-23T21:20:57.227Z,84.40
2019-03-23T21:23:28.847Z,87.10
2019-03-23T21:26:00.453Z,89.90
2019-03-23T21:28:32.154Z,91.50
2019-03-23T21:31:03.758Z,93.40
2019-03-23T21:33:38.881Z,93.40
2019-03-23T21:36:08.926Z,95.40
2019-03-23T21:38:40.529Z,95.50
2019-03-23T21:41:12.149Z,96.70
2019-03-23T21:43:43.799Z,97.70
2019-03-23T21:46:15.709Z,97.80
2019-03-23T21:48:47.484Z,98.30
2019-03-23T21:51:19.230Z,97.80
2019-03-23T21:53:51.133Z,98.40
2019-03-23T21:56:23.051Z,98.80
2019-03-23T21:58:54.724Z,98.60
2019-03-23T22:01:26.530Z,98.60
2019-03-23T22:03:58.200Z,98.70
2019-03-23T22:06:29.927Z,97.70
2019-03-23T22:09:01.547Z,97.70
2019-03-23T22:11:34.791Z,98.30
2019-03-23T22:14:06.411Z,99.00
2019-03-23T22:16:38.192Z,99.80
2019-03-23T22:19:28.584Z,99.90
2019-03-23T22:22:00.366Z,99.90
2019-03-23T22:24:31.947Z,99.90
2019-03-23T22:27:03.585Z,99.90
2019-03-23T22:29:35.199Z,99.90
2019-03-23T22:32:06.937Z,99.90
2019-03-23T22:34:38.774Z,99.90
2019-03-23T22:37:10.383Z,99.90
2019-03-23T22:39:41.984Z,99.90
2019-03-23T22:42:13.620Z,99.90
2019-03-23T22:44:52.451Z,99.90
2019-03-23T22:47:19.331Z,99.90
2019-03-23T22:49:50.947Z,99.90
2019-03-23T22:52:22.614Z,99.90
2019-03-23T22:54:54.554Z,99.90
2019-03-23T22:57:26.924Z,99.90
2019-03-23T22:59:58.547Z,99.90
2019-03-23T23:02:30.218Z,99.90
2019-03-23T23:05:01.982Z,99.90
2019-03-23T23:07:34.093Z,99.90
2019-03-23T23:10:06.493Z,99.90
2019-03-23T23:12:38.107Z,99.90
2019-03-23T23:15:09.848Z,99.90
2019-03-23T23:17:41.609Z,99.90
2019-03-23T23:20:24.211Z,99.90
2019-03-23T23:22:55.822Z,99.90
2019-03-23T23:25:27.538Z,99.90
2019-03-23T23:27:59.216Z,99.90
2019-03-23T23:30:30.925Z,99.90
2019-03-23T23:33:02.624Z,99.90
2019-03-23T23:35:34.546Z,99.90
2019-03-23T23:38:06.149Z,99.90
2019-03-23T23:40:37.796Z,99.90
2019-03-23T23:43:09.410Z,99.90
2019-03-23T23:45:41.235Z,99.90
2019-03-23T23:48:12.845Z,99.90
2019-03-23T23:50:44.447Z,99.90
2019-03-23T23:53:16.086Z,99.90
2019-03-23T23:55:47.937Z,99.90
2019-03-23T23:58:19.593Z,99.90
